Time;durP1;ratioP1;P1;durP2;ratioP2;P2;SDS_P1;SDS_P2;PMS_P1;PMS_P2;Temp;Humidity;BMP_temperature;BMP_pressure;BME280_temperature;BME280_humidity;BME280_pressure;Samples;Min_cycle;Max_cycle;Signal;HPM_P1;HPM_P2
2024/04/05 00:03:10;;;;;;;;;;;9.90;99.90;;;;;;21169823;28;19999;-78
2024/04/05 00:13:11;;;;;;;;;;;10.20;99.90;;;;;;21166801;28;19915;-79
2024/04/05 00:23:11;;;;;;;;;;;10.30;99.90;;;;;;21170516;28;19923;-79
2024/04/05 00:33:12;;;;;;;;;;;10.20;99.90;;;;;;21169703;28;19979;-76
2024/04/05 00:43:13;;;;;;;;;;;10.20;99.90;;;;;;21182754;28;19926;-79
2024/04/05 00:53:15;;;;;;;;;;;10.20;99.90;;;;;;21180735;28;20441;-78
2024/04/05 01:03:16;;;;;;;;;;;10.20;99.90;;;;;;21184033;28;19915;-78
2024/04/05 01:13:17;;;;;;;;;;;10.10;99.90;;;;;;21183548;28;20354;-77
2024/04/05 01:23:21;;;;;;;;;;;10.20;99.90;;;;;;21181839;28;19915;-78
2024/04/05 01:33:21;;;;;;;;;;;10.20;99.90;;;;;;21180303;28;19912;-77
2024/04/05 01:43:22;;;;;;;;;;;10.40;99.90;;;;;;21177208;28;19916;-79
2024/04/05 01:53:23;;;;;;;;;;;10.20;99.90;;;;;;21173589;28;19912;-79
2024/04/05 02:03:23;;;;;;;;;;;10.10;99.90;;;;;;21177072;28;19951;-78
2024/04/05 02:13:24;;;;;;;;;;;9.90;99.90;;;;;;21165599;28;19999;-79
2024/04/05 02:23:25;;;;;;;;;;;10.00;99.90;;;;;;21175828;28;20328;-76
2024/04/05 02:33:25;;;;;;;;;;;9.90;99.90;;;;;;21174430;28;19912;-77
2024/04/05 02:43:26;;;;;;;;;;;9.80;99.90;;;;;;21186496;28;19915;-78
2024/04/05 02:53:27;;;;;;;;;;;9.70;99.90;;;;;;21176577;28;20327;-78
2024/04/05 03:03:27;;;;;;;;;;;9.60;99.90;;;;;;21173988;28;19920;-78
2024/04/05 03:13:29;;;;;;;;;;;9.50;99.90;;;;;;21170319;28;19937;-76
2024/04/05 03:23:29;;;;;;;;;;;9.50;99.90;;;;;;21171742;28;19924;-78
2024/04/05 03:33:32;;;;;;;;;;;9.50;99.90;;;;;;21174629;28;19965;-78
2024/04/05 03:43:32;;;;;;;;;;;9.40;99.90;;;;;;21177133;28;19915;-77
2024/04/05 03:53:33;;;;;;;;;;;9.40;99.90;;;;;;21173982;28;19918;-79
2024/04/05 04:03:34;;;;;;;;;;;9.40;99.90;;;;;;21175217;28;19924;-79
2024/04/05 04:13:34;;;;;;;;;;;9.40;99.90;;;;;;21174506;28;19916;-79
2024/04/05 04:23:35;;;;;;;;;;;9.20;99.90;;;;;;21190803;28;19916;-79
2024/04/05 04:33:36;;;;;;;;;;;9.00;99.90;;;;;;21169175;28;19987;-77
2024/04/05 04:43:38;;;;;;;;;;;9.20;99.90;;;;;;21171389;28;19923;-79
2024/04/05 04:53:39;;;;;;;;;;;9.10;99.90;;;;;;21178245;28;19963;-79
2024/04/05 05:03:39;;;;;;;;;;;8.90;99.90;;;;;;21176278;28;19923;-77
2024/04/05 05:13:40;;;;;;;;;;;8.90;99.90;;;;;;21176922;28;19948;-79
2024/04/05 05:23:41;;;;;;;;;;;8.80;99.90;;;;;;21182970;28;19916;-74
2024/04/05 05:33:41;;;;;;;;;;;8.50;99.90;;;;;;21184882;28;20294;-79
2024/04/05 05:43:42;;;;;;;;;;;8.60;99.90;;;;;;21196385;28;19920;-78
2024/04/05 05:53:43;;;;;;;;;;;8.90;99.90;;;;;;21200099;28;19918;-79
2024/04/05 06:03:43;;;;;;;;;;;9.40;99.90;;;;;;21175909;28;20385;-80
2024/04/05 06:13:44;;;;;;;;;;;9.90;99.90;;;;;;21187705;28;19938;-79
2024/04/05 06:23:44;;;;;;;;;;;10.00;99.90;;;;;;21191829;28;19916;-80
2024/04/05 06:33:45;;;;;;;;;;;10.30;99.90;;;;;;21187346;28;19911;-77
2024/04/05 06:43:47;;;;;;;;;;;10.30;99.90;;;;;;21175031;28;19916;-80
2024/04/05 06:53:48;;;;;;;;;;;10.80;99.90;;;;;;21176728;28;20002;-79
2024/04/05 07:03:49;;;;;;;;;;;11.00;99.90;;;;;;21174678;28;19922;-78
2024/04/05 07:13:50;;;;;;;;;;;11.20;99.90;;;;;;21172984;28;20362;-78
2024/04/05 07:23:51;;;;;;;;;;;11.50;99.90;;;;;;21176348;28;19975;-80
2024/04/05 07:33:52;;;;;;;;;;;12.60;99.90;;;;;;21175739;28;19920;-81
2024/04/05 07:43:53;;;;;;;;;;;12.90;99.90;;;;;;21174947;28;19959;-80
2024/04/05 07:53:53;;;;;;;;;;;13.20;99.90;;;;;;21181735;28;20327;-78
2024/04/05 08:03:54;;;;;;;;;;;14.20;99.90;;;;;;21207209;28;19927;-76
2024/04/05 08:13:55;;;;;;;;;;;14.30;99.90;;;;;;21183215;28;19916;-77
2024/04/05 08:23:55;;;;;;;;;;;14.80;99.90;;;;;;21170552;28;19915;-78
2024/04/05 08:33:56;;;;;;;;;;;15.50;99.90;;;;;;21153081;28;20401;-78
2024/04/05 08:43:57;;;;;;;;;;;16.40;99.90;;;;;;21151838;28;19915;-79
2024/04/05 08:53:57;;;;;;;;;;;17.30;99.90;;;;;;21175850;28;19916;-79
2024/04/05 09:03:59;;;;;;;;;;;18.00;99.90;;;;;;21188639;28;19922;-78
2024/04/05 09:14:01;;;;;;;;;;;18.40;99.90;;;;;;21194599;28;19922;-78
2024/04/05 09:24:02;;;;;;;;;;;18.40;99.90;;;;;;21211828;28;19916;-80
2024/04/05 09:34:09;;;;;;;;;;;19.60;99.90;;;;;;21213737;28;19971;-77
2024/04/05 09:44:11;;;;;;;;;;;18.70;99.90;;;;;;21173104;28;20290;-77
2024/04/05 09:54:13;;;;;;;;;;;19.20;99.90;;;;;;21166626;28;20428;-77
2024/04/05 10:04:14;;;;;;;;;;;20.30;99.90;;;;;;21164019;28;19923;-78
2024/04/05 10:14:22;;;;;;;;;;;22.00;99.90;;;;;;21164383;28;19915;-77
2024/04/05 10:24:22;;;;;;;;;;;22.60;99.90;;;;;;21176869;28;19923;-79
2024/04/05 10:34:23;;;;;;;;;;;22.30;99.90;;;;;;21166452;28;19912;-77
2024/04/05 10:44:24;;;;;;;;;;;22.90;99.90;;;;;;21170135;28;19959;-77
2024/04/05 10:54:27;;;;;;;;;;;22.50;99.90;;;;;;21165436;28;20129;-75
2024/04/05 11:04:28;;;;;;;;;;;23.90;99.90;;;;;;21160019;28;19920;-76
2024/04/05 11:14:29;;;;;;;;;;;22.60;99.90;;;;;;21154642;28;19916;-78
2024/04/05 11:24:29;;;;;;;;;;;24.90;99.90;;;;;;21154690;28;20007;-78
2024/04/05 11:34:30;;;;;;;;;;;23.70;99.90;;;;;;21150290;28;19912;-77
2024/04/05 11:44:31;;;;;;;;;;;23.30;99.90;;;;;;21160239;28;19966;-77
2024/04/05 11:54:32;;;;;;;;;;;23.30;99.90;;;;;;21180275;28;20378;-78
2024/04/05 12:04:32;;;;;;;;;;;23.40;99.90;;;;;;21177426;28;19930;-78
2024/04/05 12:14:33;;;;;;;;;;;23.70;99.90;;;;;;21159123;28;19916;-76
2024/04/05 12:24:34;;;;;;;;;;;23.70;99.90;;;;;;21154622;28;19919;-76
2024/04/05 12:34:35;;;;;;;;;;;23.40;99.90;;;;;;21176805;28;19912;-78
2024/04/05 12:44:35;;;;;;;;;;;24.50;99.90;;;;;;21183237;28;19983;-78
2024/04/05 12:54:36;;;;;;;;;;;24.80;99.90;;;;;;21191889;28;19930;-78
2024/04/05 13:04:37;;;;;;;;;;;24.70;99.90;;;;;;21180127;28;19922;-78
2024/04/05 13:14:37;;;;;;;;;;;24.70;99.90;;;;;;21161946;28;19924;-77
2024/04/05 13:24:39;;;;;;;;;;;24.20;99.90;;;;;;21142763;28;19920;-78
2024/04/05 13:34:40;;;;;;;;;;;23.50;99.90;;;;;;21125787;28;19916;-79
2024/04/05 13:44:41;;;;;;;;;;;23.60;99.90;;;;;;21185216;28;19923;-79
2024/04/05 13:54:41;;;;;;;;;;;23.50;99.90;;;;;;21166929;28;19916;-76
2024/04/05 14:04:46;;;;;;;;;;;24.10;99.90;;;;;;21163789;28;19915;-76
2024/04/05 14:14:50;;;;;;;;;;;24.10;99.90;;;;;;21156563;28;19923;-76
2024/04/05 14:24:50;;;;;;;;;;;23.40;99.90;;;;;;21102099;28;19927;-76
2024/04/05 14:34:51;;;;;;;;;;;23.50;99.90;;;;;;21090235;28;19916;-76
2024/04/05 14:44:53;;;;;;;;;;;23.10;99.90;;;;;;21094729;28;19970;-76
2024/04/05 14:54:53;;;;;;;;;;;22.80;99.90;;;;;;21098119;28;19927;-76
2024/04/05 15:04:55;;;;;;;;;;;22.90;99.90;;;;;;21090943;28;20322;-77
2024/04/05 15:14:56;;;;;;;;;;;23.00;99.90;;;;;;21094305;28;19920;-76
2024/04/05 15:24:56;;;;;;;;;;;22.70;99.90;;;;;;21096914;28;19920;-77
2024/04/05 15:34:57;;;;;;;;;;;22.60;99.90;;;;;;21100375;28;19915;-77
2024/04/05 15:44:58;;;;;;;;;;;22.70;99.90;;;;;;21117106;28;19924;-77
2024/04/05 15:54:58;;;;;;;;;;;22.70;99.90;;;;;;21093077;28;19951;-77
2024/04/05 16:04:59;;;;;;;;;;;23.00;99.90;;;;;;21126325;28;19916;-78
2024/04/05 16:14:59;;;;;;;;;;;23.30;99.90;;;;;;21150439;28;19916;-77
2024/04/05 16:25:01;;;;;;;;;;;22.60;99.90;;;;;;21115884;28;20394;-77
2024/04/05 16:35:02;;;;;;;;;;;22.30;99.90;;;;;;21106459;28;19930;-77
2024/04/05 16:45:08;;;;;;;;;;;21.90;99.90;;;;;;21130938;28;20386;-77
2024/04/05 16:55:12;;;;;;;;;;;21.90;99.90;;;;;;21148307;28;19916;-78
2024/04/05 17:05:13;;;;;;;;;;;21.70;99.90;;;;;;21174461;28;19963;-78
2024/04/05 17:15:14;;;;;;;;;;;21.40;99.90;;;;;;21145377;28;19934;-78
2024/04/05 17:25:15;;;;;;;;;;;21.20;99.90;;;;;;21129951;28;19924;-79
2024/04/05 17:35:16;;;;;;;;;;;21.00;99.90;;;;;;21139128;28;20533;-77
2024/04/05 17:45:16;;;;;;;;;;;20.70;99.90;;;;;;21117253;28;20381;-78
2024/04/05 17:55:17;;;;;;;;;;;20.40;99.90;;;;;;21115337;28;19987;-77
2024/04/05 18:05:18;;;;;;;;;;;19.70;99.90;;;;;;21117079;28;19916;-76
2024/04/05 18:15:19;;;;;;;;;;;18.60;99.90;;;;;;21116498;28;19923;-76
2024/04/05 18:25:20;;;;;;;;;;;18.30;99.90;;;;;;21147610;28;20393;-79
2024/04/05 18:35:21;;;;;;;;;;;18.50;99.90;;;;;;21152335;28;19922;-78
2024/04/05 18:45:23;;;;;;;;;;;17.60;99.90;;;;;;21135383;28;19916;-79
2024/04/05 18:55:35;;;;;;;;;;;17.50;99.90;;;;;;21140619;28;19952;-78
2024/04/05 19:05:36;;;;;;;;;;;17.20;99.90;;;;;;21119016;28;19981;-79
2024/04/05 19:15:42;;;;;;;;;;;17.10;99.90;;;;;;21135935;28;19916;-78
2024/04/05 19:25:42;;;;;;;;;;;16.80;99.90;;;;;;21121944;28;19927;-78
2024/04/05 19:35:43;;;;;;;;;;;16.70;99.90;;;;;;21109017;28;19958;-79
2024/04/05 19:45:47;;;;;;;;;;;16.60;99.90;;;;;;21124143;28;19961;-79
2024/04/05 19:55:48;;;;;;;;;;;16.10;99.90;;;;;;21120848;28;19912;-78
2024/04/05 20:05:48;;;;;;;;;;;15.70;99.90;;;;;;21121776;28;19927;-79
2024/04/05 20:15:49;;;;;;;;;;;15.40;99.90;;;;;;21090756;28;20000;-80
2024/04/05 20:25:50;;;;;;;;;;;15.10;99.90;;;;;;21104086;28;20409;-77
2024/04/05 20:35:50;;;;;;;;;;;15.10;99.90;;;;;;21099160;28;20335;-78
2024/04/05 20:45:51;;;;;;;;;;;14.90;99.90;;;;;;21102479;28;20456;-79
2024/04/05 20:55:52;;;;;;;;;;;14.40;99.90;;;;;;21099352;28;19947;-79
2024/04/05 21:05:54;;;;;;;;;;;14.00;99.90;;;;;;21099752;28;19916;-79
2024/04/05 21:15:55;;;;;;;;;;;13.10;99.90;;;;;;21107994;28;20332;-78
2024/04/05 21:25:56;;;;;;;;;;;13.00;99.90;;;;;;21106166;28;20316;-78
2024/04/05 21:35:56;;;;;;;;;;;12.90;99.90;;;;;;21101581;28;20006;-79
2024/04/05 21:45:57;;;;;;;;;;;12.40;99.90;;;;;;21095291;28;19920;-79
2024/04/05 21:55:58;;;;;;;;;;;12.80;99.90;;;;;;21094615;28;19959;-77
2024/04/05 22:05:59;;;;;;;;;;;12.40;99.90;;;;;;21099071;28;20344;-78
2024/04/05 22:16:00;;;;;;;;;;;12.40;99.90;;;;;;21093218;28;19939;-79
2024/04/05 22:26:01;;;;;;;;;;;12.10;99.90;;;;;;21086532;28;20303;-77
2024/04/05 22:36:02;;;;;;;;;;;12.00;99.90;;;;;;21071613;28;19912;-79
2024/04/05 22:46:04;;;;;;;;;;;12.00;99.90;;;;;;21120464;28;19916;-78
2024/04/05 22:56:05;;;;;;;;;;;11.50;99.90;;;;;;21113726;28;19912;-79
2024/04/05 23:06:06;;;;;;;;;;;11.60;99.90;;;;;;21115129;28;19915;-79
2024/04/05 23:16:07;;;;;;;;;;;11.40;99.90;;;;;;21126558;28;19916;-79
2024/04/05 23:26:08;;;;;;;;;;;11.60;99.90;;;;;;21123637;28;19916;-79
2024/04/05 23:36:08;;;;;;;;;;;11.50;99.90;;;;;;21112706;28;19916;-79
2024/04/05 23:46:09;;;;;;;;;;;11.00;99.90;;;;;;21123013;28;19994;-79
2024/04/05 23:56:10;;;;;;;;;;;11.20;99.90;;;;;;21127950;28;19920;-79
